sensor_id;sensor_type;location;lat;lon;timestamp;pressure;altitude;pressure_sealevel;temperature;humidity
70254;BME280;57649;42.968;1.608;2024-01-15T00:01:44;96802.44;;;7.77;100.00
70254;BME280;57649;42.968;1.608;2024-01-15T00:04:10;96792.63;;;7.77;100.00
70254;BME280;57649;42.968;1.608;2024-01-15T00:06:36;96780.28;;;7.84;100.00
70254;BME280;57649;42.968;1.608;2024-01-15T00:09:01;96787.94;;;7.87;100.00
70254;BME280;57649;42.968;1.608;2024-01-15T00:11:27;96802.59;;;7.75;100.00
70254;BME280;57649;42.968;1.608;2024-01-15T00:13:52;96786.94;;;7.64;100.00
70254;BME280;57649;42.968;1.608;2024-01-15T00:16:18;96778.59;;;7.67;100.00
70254;BME280;57649;42.968;1.608;2024-01-15T00:18:43;96785.25;;;7.71;100.00
70254;BME280;57649;42.968;1.608;2024-01-15T00:21:09;96797.59;;;7.72;100.00
70254;BME280;57649;42.968;1.608;2024-01-15T00:23:34;96793.59;;;7.68;100.00
70254;BME280;57649;42.968;1.608;2024-01-15T00:26:00;96791.25;;;7.65;100.00
70254;BME280;57649;42.968;1.608;2024-01-15T00:28:25;96788.91;;;7.62;100.00
70254;BME280;57649;42.968;1.608;2024-01-15T00:30:51;96784.59;;;7.61;100.00
70254;BME280;57649;42.968;1.608;2024-01-15T00:33:16;96773.94;;;7.61;100.00
70254;BME280;57649;42.968;1.608;2024-01-15T00:35:42;96779.94;;;7.63;100.00
70254;BME280;57649;42.968;1.608;2024-01-15T00:38:07;96776.63;;;7.61;100.00
70254;BME280;57649;42.968;1.608;2024-01-15T00:40:33;96765.78;;;7.62;100.00
70254;BME280;57649;42.968;1.608;2024-01-15T00:42:58;96770.28;;;7.62;100.00
70254;BME280;57649;42.968;1.608;2024-01-15T00:45:23;96774.13;;;7.67;100.00
70254;BME280;57649;42.968;1.608;2024-01-15T00:47:49;96767.94;;;7.67;100.00
70254;BME280;57649;42.968;1.608;2024-01-15T00:50:14;96764.63;;;7.65;100.00
70254;BME280;57649;42.968;1.608;2024-01-15T00:52:40;96755.16;;;7.62;100.00
70254;BME280;57649;42.968;1.608;2024-01-15T00:55:05;96754.97;;;7.64;100.00
70254;BME280;57649;42.968;1.608;2024-01-15T00:57:31;96756.28;;;7.60;100.00
70254;BME280;57649;42.968;1.608;2024-01-15T00:59:56;96742.16;;;7.59;100.00
70254;BME280;57649;42.968;1.608;2024-01-15T01:02:22;96741.16;;;7.60;100.00
70254;BME280;57649;42.968;1.608;2024-01-15T01:04:47;96741.66;;;7.56;100.00
70254;BME280;57649;42.968;1.608;2024-01-15T01:07:12;96744.81;;;7.59;100.00
70254;BME280;57649;42.968;1.608;2024-01-15T01:09:38;96734.97;;;7.60;100.00
70254;BME280;57649;42.968;1.608;2024-01-15T01:12:03;96733.16;;;7.52;100.00
70254;BME280;57649;42.968;1.608;2024-01-15T01:14:29;96716.00;;;7.46;100.00
70254;BME280;57649;42.968;1.608;2024-01-15T01:16:54;96727.97;;;7.50;100.00
70254;BME280;57649;42.968;1.608;2024-01-15T01:19:20;96731.31;;;7.44;100.00
70254;BME280;57649;42.968;1.608;2024-01-15T01:21:45;96731.63;;;7.33;100.00
70254;BME280;57649;42.968;1.608;2024-01-15T01:24:10;96733.44;;;7.32;100.00
70254;BME280;57649;42.968;1.608;2024-01-15T01:26:36;96745.06;;;7.23;100.00
70254;BME280;57649;42.968;1.608;2024-01-15T01:29:01;96751.25;;;7.32;100.00
70254;BME280;57649;42.968;1.608;2024-01-15T01:31:27;96748.09;;;7.20;100.00
70254;BME280;57649;42.968;1.608;2024-01-15T01:33:53;96739.59;;;7.17;100.00
70254;BME280;57649;42.968;1.608;2024-01-15T01:36:18;96738.78;;;7.24;100.00
70254;BME280;57649;42.968;1.608;2024-01-15T01:38:43;96747.06;;;7.21;100.00
70254;BME280;57649;42.968;1.608;2024-01-15T01:41:09;96744.88;;;7.08;100.00
70254;BME280;57649;42.968;1.608;2024-01-15T01:43:35;96738.22;;;7.04;100.00
70254;BME280;57649;42.968;1.608;2024-01-15T01:46:01;96725.28;;;7.18;100.00
70254;BME280;57649;42.968;1.608;2024-01-15T01:48:29;96728.25;;;7.06;100.00
70254;BME280;57649;42.968;1.608;2024-01-15T01:50:57;96718.25;;;7.00;100.00
70254;BME280;57649;42.968;1.608;2024-01-15T01:53:24;96730.91;;;6.98;100.00
70254;BME280;57649;42.968;1.608;2024-01-15T01:55:51;96728.19;;;6.90;100.00
70254;BME280;57649;42.968;1.608;2024-01-15T01:58:17;96732.38;;;6.92;100.00
70254;BME280;57649;42.968;1.608;2024-01-15T02:00:43;96729.72;;;6.92;100.00
70254;BME280;57649;42.968;1.608;2024-01-15T02:03:09;96731.69;;;6.90;100.00
70254;BME280;57649;42.968;1.608;2024-01-15T02:05:35;96735.88;;;6.93;100.00
70254;BME280;57649;42.968;1.608;2024-01-15T02:08:00;96734.03;;;6.85;100.00
70254;BME280;57649;42.968;1.608;2024-01-15T02:10:26;96740.16;;;6.86;100.00
70254;BME280;57649;42.968;1.608;2024-01-15T02:12:51;96745.81;;;6.83;100.00
70254;BME280;57649;42.968;1.608;2024-01-15T02:15:16;96740.53;;;6.91;100.00
70254;BME280;57649;42.968;1.608;2024-01-15T02:18:02;96730.69;;;6.91;100.00
70254;BME280;57649;42.968;1.608;2024-01-15T02:20:29;96717.69;;;6.80;100.00
70254;BME280;57649;42.968;1.608;2024-01-15T02:25:32;96726.88;;;6.86;100.00
70254;BME280;57649;42.968;1.608;2024-01-15T02:27:58;96717.50;;;6.73;100.00
70254;BME280;57649;42.968;1.608;2024-01-15T02:30:25;96720.84;;;6.75;100.00
70254;BME280;57649;42.968;1.608;2024-01-15T02:32:50;96723.34;;;6.77;100.00
70254;BME280;57649;42.968;1.608;2024-01-15T02:35:16;96723.84;;;6.81;100.00
70254;BME280;57649;42.968;1.608;2024-01-15T02:37:42;96713.41;;;6.87;100.00
70254;BME280;57649;42.968;1.608;2024-01-15T02:40:08;96711.56;;;6.88;100.00
70254;BME280;57649;42.968;1.608;2024-01-15T02:42:33;96709.91;;;6.87;100.00
70254;BME280;57649;42.968;1.608;2024-01-15T02:44:59;96695.91;;;6.85;100.00
70254;BME280;57649;42.968;1.608;2024-01-15T02:47:24;96698.94;;;6.82;100.00
70254;BME280;57649;42.968;1.608;2024-01-15T02:49:50;96702.88;;;6.78;100.00
70254;BME280;57649;42.968;1.608;2024-01-15T02:52:15;96691.28;;;6.87;100.00
70254;BME280;57649;42.968;1.608;2024-01-15T02:54:41;96696.94;;;6.84;100.00
70254;BME280;57649;42.968;1.608;2024-01-15T02:57:06;96699.25;;;6.79;100.00
70254;BME280;57649;42.968;1.608;2024-01-15T02:59:31;96703.88;;;6.77;100.00
70254;BME280;57649;42.968;1.608;2024-01-15T03:01:57;96697.03;;;6.74;100.00
70254;BME280;57649;42.968;1.608;2024-01-15T03:04:22;96693.22;;;6.68;100.00
70254;BME280;57649;42.968;1.608;2024-01-15T03:06:47;96683.94;;;6.72;100.00
70254;BME280;57649;42.968;1.608;2024-01-15T03:09:13;96677.81;;;6.80;100.00
70254;BME280;57649;42.968;1.608;2024-01-15T03:11:39;96667.13;;;6.72;100.00
70254;BME280;57649;42.968;1.608;2024-01-15T03:14:04;96668.47;;;6.76;100.00
70254;BME280;57649;42.968;1.608;2024-01-15T03:16:30;96669.31;;;6.85;100.00
70254;BME280;57649;42.968;1.608;2024-01-15T03:18:55;96658.00;;;6.74;100.00
70254;BME280;57649;42.968;1.608;2024-01-15T03:21:20;96648.69;;;6.79;100.00
70254;BME280;57649;42.968;1.608;2024-01-15T03:23:46;96646.69;;;6.81;100.00
70254;BME280;57649;42.968;1.608;2024-01-15T03:26:11;96643.53;;;6.69;100.00
70254;BME280;57649;42.968;1.608;2024-01-15T03:28:37;96651.00;;;6.73;100.00
70254;BME280;57649;42.968;1.608;2024-01-15T03:31:02;96656.16;;;6.75;100.00
70254;BME280;57649;42.968;1.608;2024-01-15T03:33:27;96653.81;;;6.72;100.00
70254;BME280;57649;42.968;1.608;2024-01-15T03:35:53;96649.66;;;6.69;100.00
70254;BME280;57649;42.968;1.608;2024-01-15T03:38:18;96641.69;;;6.78;100.00
70254;BME280;57649;42.968;1.608;2024-01-15T03:40:44;96644.03;;;6.81;100.00
70254;BME280;57649;42.968;1.608;2024-01-15T03:43:09;96648.22;;;6.83;100.00
70254;BME280;57649;42.968;1.608;2024-01-15T03:45:34;96629.13;;;6.96;100.00
70254;BME280;57649;42.968;1.608;2024-01-15T03:48:00;96630.56;;;6.90;100.00
70254;BME280;57649;42.968;1.608;2024-01-15T03:50:25;96627.59;;;6.93;100.00
70254;BME280;57649;42.968;1.608;2024-01-15T03:52:50;96633.75;;;6.86;100.00
70254;BME280;57649;42.968;1.608;2024-01-15T03:55:16;96628.94;;;6.89;100.00
70254;BME280;57649;42.968;1.608;2024-01-15T03:57:41;96628.09;;;6.89;100.00
70254;BME280;57649;42.968;1.608;2024-01-15T04:00:07;96633.94;;;6.92;100.00
70254;BME280;57649;42.968;1.608;2024-01-15T04:02:32;96630.56;;;6.90;100.00
70254;BME280;57649;42.968;1.608;2024-01-15T04:04:58;96619.78;;;6.84;100.00
70254;BME280;57649;42.968;1.608;2024-01-15T04:07:23;96623.25;;;6.84;100.00
70254;BME280;57649;42.968;1.608;2024-01-15T04:09:49;96631.09;;;6.86;100.00
70254;BME280;57649;42.968;1.608;2024-01-15T04:12:14;96622.94;;;6.96;100.00
70254;BME280;57649;42.968;1.608;2024-01-15T04:14:39;96613.94;;;6.80;100.00
70254;BME280;57649;42.968;1.608;2024-01-15T04:17:05;96621.09;;;6.80;100.00
70254;BME280;57649;42.968;1.608;2024-01-15T04:19:30;96619.94;;;6.82;100.00
70254;BME280;57649;42.968;1.608;2024-01-15T04:21:55;96618.44;;;6.88;100.00
70254;BME280;57649;42.968;1.608;2024-01-15T04:24:21;96616.09;;;6.85;100.00
70254;BME280;57649;42.968;1.608;2024-01-15T04:26:46;96615.44;;;6.83;100.00
70254;BME280;57649;42.968;1.608;2024-01-15T04:29:12;96594.97;;;6.75;100.00
70254;BME280;57649;42.968;1.608;2024-01-15T04:31:37;96586.00;;;6.68;100.00
70254;BME280;57649;42.968;1.608;2024-01-15T04:34:02;96589.66;;;6.67;100.00
70254;BME280;57649;42.968;1.608;2024-01-15T04:36:28;96589.16;;;6.63;100.00
70254;BME280;57649;42.968;1.608;2024-01-15T04:38:53;96577.66;;;6.63;100.00
70254;BME280;57649;42.968;1.608;2024-01-15T04:41:19;96569.84;;;6.61;100.00
70254;BME280;57649;42.968;1.608;2024-01-15T04:43:44;96577.50;;;6.56;100.00
70254;BME280;57649;42.968;1.608;2024-01-15T04:46:10;96573.50;;;6.68;100.00
70254;BME280;57649;42.968;1.608;2024-01-15T04:48:35;96582.66;;;6.66;100.00
70254;BME280;57649;42.968;1.608;2024-01-15T04:51:01;96577.03;;;6.69;100.00
70254;BME280;57649;42.968;1.608;2024-01-15T04:53:28;96574.50;;;6.59;100.00
70254;BME280;57649;42.968;1.608;2024-01-15T04:55:54;96590.50;;;6.67;100.00
70254;BME280;57649;42.968;1.608;2024-01-15T04:58:19;96586.97;;;6.59;100.00
70254;BME280;57649;42.968;1.608;2024-01-15T05:00:45;96578.16;;;6.58;100.00
70254;BME280;57649;42.968;1.608;2024-01-15T05:03:10;96568.88;;;6.54;100.00
70254;BME280;57649;42.968;1.608;2024-01-15T05:05:36;96588.47;;;6.53;100.00
70254;BME280;57649;42.968;1.608;2024-01-15T05:08:01;96579.00;;;6.59;100.00
70254;BME280;57649;42.968;1.608;2024-01-15T05:10:27;96575.34;;;6.60;100.00
70254;BME280;57649;42.968;1.608;2024-01-15T05:12:52;96585.13;;;6.51;100.00
70254;BME280;57649;42.968;1.608;2024-01-15T05:15:17;96576.50;;;6.49;100.00
70254;BME280;57649;42.968;1.608;2024-01-15T05:17:43;96578.31;;;6.57;100.00
70254;BME280;57649;42.968;1.608;2024-01-15T05:20:08;96584.13;;;6.52;100.00
70254;BME280;57649;42.968;1.608;2024-01-15T05:22:34;96566.38;;;6.52;100.00
70254;BME280;57649;42.968;1.608;2024-01-15T05:25:00;96559.38;;;6.51;100.00
70254;BME280;57649;42.968;1.608;2024-01-15T05:27:25;96570.19;;;6.58;100.00
70254;BME280;57649;42.968;1.608;2024-01-15T05:29:50;96558.22;;;6.54;100.00
70254;BME280;57649;42.968;1.608;2024-01-15T05:32:16;96561.03;;;6.52;100.00
70254;BME280;57649;42.968;1.608;2024-01-15T05:34:41;96562.69;;;6.53;100.00
70254;BME280;57649;42.968;1.608;2024-01-15T05:37:06;96551.91;;;6.55;100.00
70254;BME280;57649;42.968;1.608;2024-01-15T05:39:32;96544.25;;;6.52;100.00
70254;BME280;57649;42.968;1.608;2024-01-15T05:41:58;96546.25;;;6.58;100.00
70254;BME280;57649;42.968;1.608;2024-01-15T05:44:23;96554.88;;;6.52;100.00
70254;BME280;57649;42.968;1.608;2024-01-15T05:46:49;96553.38;;;6.41;100.00
70254;BME280;57649;42.968;1.608;2024-01-15T05:49:14;96546.19;;;6.33;100.00
70254;BME280;57649;42.968;1.608;2024-01-15T05:51:39;96541.38;;;6.37;100.00
70254;BME280;57649;42.968;1.608;2024-01-15T05:54:05;96549.88;;;6.41;100.00
70254;BME280;57649;42.968;1.608;2024-01-15T05:56:31;96538.72;;;6.37;100.00
70254;BME280;57649;42.968;1.608;2024-01-15T05:58:56;96535.56;;;6.33;100.00
70254;BME280;57649;42.968;1.608;2024-01-15T06:01:21;96544.53;;;6.32;100.00
70254;BME280;57649;42.968;1.608;2024-01-15T06:03:47;96545.25;;;6.51;100.00
70254;BME280;57649;42.968;1.608;2024-01-15T06:06:12;96551.22;;;6.53;100.00
70254;BME280;57649;42.968;1.608;2024-01-15T06:08:39;96540.41;;;6.46;100.00
70254;BME280;57649;42.968;1.608;2024-01-15T06:11:04;96541.91;;;6.57;100.00
70254;BME280;57649;42.968;1.608;2024-01-15T06:13:30;96534.97;;;6.56;100.00
70254;BME280;57649;42.968;1.608;2024-01-15T06:15:55;96536.97;;;6.54;100.00
70254;BME280;57649;42.968;1.608;2024-01-15T06:18:21;96540.78;;;6.60;100.00
70254;BME280;57649;42.968;1.608;2024-01-15T06:20:46;96535.09;;;6.46;100.00
70254;BME280;57649;42.968;1.608;2024-01-15T06:23:12;96531.44;;;6.47;100.00
70254;BME280;57649;42.968;1.608;2024-01-15T06:25:37;96535.13;;;6.54;100.00
70254;BME280;57649;42.968;1.608;2024-01-15T06:28:02;96521.50;;;6.66;100.00
70254;BME280;57649;42.968;1.608;2024-01-15T06:30:30;96517.34;;;6.71;100.00
70254;BME280;57649;42.968;1.608;2024-01-15T06:32:55;96525.34;;;6.80;100.00
70254;BME280;57649;42.968;1.608;2024-01-15T06:35:20;96520.50;;;6.67;100.00
70254;BME280;57649;42.968;1.608;2024-01-15T06:37:46;96515.84;;;6.69;100.00
70254;BME280;57649;42.968;1.608;2024-01-15T06:40:11;96521.34;;;6.84;100.00
70254;BME280;57649;42.968;1.608;2024-01-15T06:42:37;96522.16;;;6.84;100.00
70254;BME280;57649;42.968;1.608;2024-01-15T06:45:02;96517.03;;;6.91;100.00
70254;BME280;57649;42.968;1.608;2024-01-15T06:47:28;96518.00;;;6.90;100.00
70254;BME280;57649;42.968;1.608;2024-01-15T06:49:54;96518.81;;;6.90;100.00
70254;BME280;57649;42.968;1.608;2024-01-15T06:52:20;96528.47;;;6.91;100.00
70254;BME280;57649;42.968;1.608;2024-01-15T06:54:45;96518.69;;;6.84;100.00
70254;BME280;57649;42.968;1.608;2024-01-15T06:57:11;96525.16;;;6.89;100.00
70254;BME280;57649;42.968;1.608;2024-01-15T06:59:36;96512.84;;;6.88;100.00
70254;BME280;57649;42.968;1.608;2024-01-15T07:02:02;96503.88;;;6.89;100.00
70254;BME280;57649;42.968;1.608;2024-01-15T07:04:27;96505.72;;;6.89;100.00
70254;BME280;57649;42.968;1.608;2024-01-15T07:06:53;96493.91;;;6.91;100.00
70254;BME280;57649;42.968;1.608;2024-01-15T07:09:18;96490.06;;;6.94;100.00
70254;BME280;57649;42.968;1.608;2024-01-15T07:11:45;96483.09;;;6.93;100.00
70254;BME280;57649;42.968;1.608;2024-01-15T07:14:11;96482.75;;;6.96;100.00
70254;BME280;57649;42.968;1.608;2024-01-15T07:16:37;96476.94;;;6.92;100.00
70254;BME280;57649;42.968;1.608;2024-01-15T07:19:02;96483.75;;;6.95;100.00
70254;BME280;57649;42.968;1.608;2024-01-15T07:21:27;96481.41;;;6.92;100.00
70254;BME280;57649;42.968;1.608;2024-01-15T07:23:53;96475.78;;;6.87;100.00
70254;BME280;57649;42.968;1.608;2024-01-15T07:26:18;96472.13;;;6.96;100.00
70254;BME280;57649;42.968;1.608;2024-01-15T07:28:43;96481.41;;;6.92;100.00
70254;BME280;57649;42.968;1.608;2024-01-15T07:31:09;96483.75;;;6.95;100.00
70254;BME280;57649;42.968;1.608;2024-01-15T07:33:34;96481.25;;;7.02;100.00
70254;BME280;57649;42.968;1.608;2024-01-15T07:35:59;96492.72;;;7.19;100.00
70254;BME280;57649;42.968;1.608;2024-01-15T07:38:25;96501.19;;;7.22;100.00
70254;BME280;57649;42.968;1.608;2024-01-15T07:40:50;96499.88;;;7.18;100.00
70254;BME280;57649;42.968;1.608;2024-01-15T07:43:19;96498.34;;;7.16;100.00
70254;BME280;57649;42.968;1.608;2024-01-15T07:45:47;96484.19;;;7.23;100.00
70254;BME280;57649;42.968;1.608;2024-01-15T07:48:15;96494.50;;;7.26;100.00
70254;BME280;57649;42.968;1.608;2024-01-15T07:50:40;96487.34;;;7.27;100.00
70254;BME280;57649;42.968;1.608;2024-01-15T07:53:06;96485.19;;;7.39;100.00
70254;BME280;57649;42.968;1.608;2024-01-15T07:55:34;96494.84;;;7.31;100.00
70254;BME280;57649;42.968;1.608;2024-01-15T07:58:00;96498.84;;;7.27;100.00
70254;BME280;57649;42.968;1.608;2024-01-15T08:00:26;96489.34;;;7.33;100.00
70254;BME280;57649;42.968;1.608;2024-01-15T08:02:51;96493.16;;;7.39;100.00
70254;BME280;57649;42.968;1.608;2024-01-15T08:05:18;96499.09;;;7.49;100.00
70254;BME280;57649;42.968;1.608;2024-01-15T08:07:43;96490.16;;;7.33;100.00
70254;BME280;57649;42.968;1.608;2024-01-15T08:10:09;96495.34;;;7.35;100.00
70254;BME280;57649;42.968;1.608;2024-01-15T08:12:35;96504.84;;;7.29;100.00
70254;BME280;57649;42.968;1.608;2024-01-15T08:15:00;96504.47;;;7.32;100.00
70254;BME280;57649;42.968;1.608;2024-01-15T08:17:25;96498.16;;;7.33;100.00
70254;BME280;57649;42.968;1.608;2024-01-15T08:19:54;96501.66;;;7.34;100.00
70254;BME280;57649;42.968;1.608;2024-01-15T08:22:20;96505.31;;;7.33;100.00
70254;BME280;57649;42.968;1.608;2024-01-15T08:24:45;96504.47;;;7.41;100.00
70254;BME280;57649;42.968;1.608;2024-01-15T08:27:11;96504.59;;;7.56;100.00
70254;BME280;57649;42.968;1.608;2024-01-15T08:29:36;96517.56;;;7.59;100.00
70254;BME280;57649;42.968;1.608;2024-01-15T08:32:02;96517.28;;;7.37;100.00
70254;BME280;57649;42.968;1.608;2024-01-15T08:34:27;96516.44;;;7.45;100.00
70254;BME280;57649;42.968;1.608;2024-01-15T08:36:52;96513.09;;;7.51;100.00
70254;BME280;57649;42.968;1.608;2024-01-15T08:39:18;96525.06;;;7.55;100.00
70254;BME280;57649;42.968;1.608;2024-01-15T08:41:44;96508.94;;;7.57;100.00
70254;BME280;57649;42.968;1.608;2024-01-15T08:44:11;96525.91;;;7.56;100.00
70254;BME280;57649;42.968;1.608;2024-01-15T08:46:37;96523.91;;;7.58;100.00
70254;BME280;57649;42.968;1.608;2024-01-15T08:49:03;96528.50;;;7.72;100.00
70254;BME280;57649;42.968;1.608;2024-01-15T08:51:28;96537.19;;;7.66;100.00
70254;BME280;57649;42.968;1.608;2024-01-15T08:53:53;96538.22;;;7.57;100.00
70254;BME280;57649;42.968;1.608;2024-01-15T08:56:19;96539.72;;;7.59;100.00
70254;BME280;57649;42.968;1.608;2024-01-15T08:58:45;96534.53;;;7.58;100.00
70254;BME280;57649;42.968;1.608;2024-01-15T09:01:11;96550.16;;;7.69;100.00
70254;BME280;57649;42.968;1.608;2024-01-15T09:03:36;96544.81;;;7.77;100.00
70254;BME280;57649;42.968;1.608;2024-01-15T09:06:02;96543.25;;;7.91;100.00
70254;BME280;57649;42.968;1.608;2024-01-15T09:08:28;96542.13;;;7.85;100.00
70254;BME280;57649;42.968;1.608;2024-01-15T09:10:53;96541.72;;;7.97;100.00
70254;BME280;57649;42.968;1.608;2024-01-15T09:13:19;96544.75;;;7.94;100.00
70254;BME280;57649;42.968;1.608;2024-01-15T09:15:44;96549.72;;;7.97;100.00
70254;BME280;57649;42.968;1.608;2024-01-15T09:18:10;96547.44;;;7.94;100.00
70254;BME280;57649;42.968;1.608;2024-01-15T09:20:35;96552.38;;;8.05;100.00
70254;BME280;57649;42.968;1.608;2024-01-15T09:23:01;96552.03;;;8.08;100.00
70254;BME280;57649;42.968;1.608;2024-01-15T09:25:26;96547.22;;;8.03;100.00
70254;BME280;57649;42.968;1.608;2024-01-15T09:27:51;96552.00;;;8.16;100.00
70254;BME280;57649;42.968;1.608;2024-01-15T09:30:17;96539.63;;;8.23;100.00
70254;BME280;57649;42.968;1.608;2024-01-15T09:32:42;96541.91;;;8.35;100.00
70254;BME280;57649;42.968;1.608;2024-01-15T09:35:08;96559.84;;;8.49;100.00
70254;BME280;57649;42.968;1.608;2024-01-15T09:37:34;96555.47;;;8.56;100.00
70254;BME280;57649;42.968;1.608;2024-01-15T09:39:59;96549.97;;;8.58;100.00
70254;BME280;57649;42.968;1.608;2024-01-15T09:42:25;96547.78;;;8.61;100.00
70254;BME280;57649;42.968;1.608;2024-01-15T09:44:51;96541.38;;;8.71;100.00
70254;BME280;57649;42.968;1.608;2024-01-15T09:47:18;96546.13;;;8.83;100.00
70254;BME280;57649;42.968;1.608;2024-01-15T09:49:44;96544.28;;;8.84;100.00
70254;BME280;57649;42.968;1.608;2024-01-15T09:52:10;96545.41;;;8.90;100.00
70254;BME280;57649;42.968;1.608;2024-01-15T09:54:37;96548.50;;;9.01;100.00
70254;BME280;57649;42.968;1.608;2024-01-15T09:57:04;96557.97;;;9.04;100.00
70254;BME280;57649;42.968;1.608;2024-01-15T09:59:29;96551.22;;;8.93;100.00
70254;BME280;57649;42.968;1.608;2024-01-15T10:01:56;96548.88;;;9.13;100.00
70254;BME280;57649;42.968;1.608;2024-01-15T10:04:22;96545.59;;;9.26;100.00
70254;BME280;57649;42.968;1.608;2024-01-15T10:06:50;96555.94;;;9.29;100.00
70254;BME280;57649;42.968;1.608;2024-01-15T10:09:17;96551.53;;;9.36;100.00
70254;BME280;57649;42.968;1.608;2024-01-15T10:11:43;96553.66;;;9.41;100.00
70254;BME280;57649;42.968;1.608;2024-01-15T10:14:10;96553.41;;;9.51;100.00
70254;BME280;57649;42.968;1.608;2024-01-15T10:16:40;96541.78;;;9.43;100.00
70254;BME280;57649;42.968;1.608;2024-01-15T10:19:06;96542.63;;;9.59;100.00
70254;BME280;57649;42.968;1.608;2024-01-15T10:21:32;96539.03;;;9.52;100.00
70254;BME280;57649;42.968;1.608;2024-01-15T10:24:00;96535.88;;;9.48;100.00
70254;BME280;57649;42.968;1.608;2024-01-15T10:26:26;96527.97;;;9.55;100.00
70254;BME280;57649;42.968;1.608;2024-01-15T10:28:51;96533.84;;;9.50;100.00
70254;BME280;57649;42.968;1.608;2024-01-15T10:31:17;96527.81;;;9.56;100.00
70254;BME280;57649;42.968;1.608;2024-01-15T10:33:44;96528.34;;;9.67;100.00
70254;BME280;57649;42.968;1.608;2024-01-15T10:36:10;96518.84;;;9.64;100.00
70254;BME280;57649;42.968;1.608;2024-01-15T10:38:36;96518.75;;;9.72;100.00
70254;BME280;57649;42.968;1.608;2024-01-15T10:41:02;96517.38;;;9.61;100.00
70254;BME280;57649;42.968;1.608;2024-01-15T10:43:27;96528.06;;;9.61;100.00
70254;BME280;57649;42.968;1.608;2024-01-15T10:45:52;96516.53;;;9.61;100.00
70254;BME280;57649;42.968;1.608;2024-01-15T10:48:18;96523.16;;;9.65;100.00
70254;BME280;57649;42.968;1.608;2024-01-15T10:50:47;96515.72;;;9.60;100.00
70254;BME280;57649;42.968;1.608;2024-01-15T10:53:16;96521.16;;;9.67;100.00
70254;BME280;57649;42.968;1.608;2024-01-15T10:55:43;96521.59;;;9.71;100.00
70254;BME280;57649;42.968;1.608;2024-01-15T10:58:09;96515.25;;;9.72;100.00
70254;BME280;57649;42.968;1.608;2024-01-15T11:00:35;96515.38;;;9.78;100.00
70254;BME280;57649;42.968;1.608;2024-01-15T11:03:03;96514.25;;;9.88;100.00
70254;BME280;57649;42.968;1.608;2024-01-15T11:05:39;96509.91;;;9.87;100.00
70254;BME280;57649;42.968;1.608;2024-01-15T11:08:08;96510.81;;;9.94;100.00
70254;BME280;57649;42.968;1.608;2024-01-15T11:10:47;96503.22;;;10.12;100.00
70254;BME280;57649;42.968;1.608;2024-01-15T11:13:19;96492.94;;;10.09;100.00
70254;BME280;57649;42.968;1.608;2024-01-15T11:18:26;96483.78;;;10.18;100.00
70254;BME280;57649;42.968;1.608;2024-01-15T11:23:49;96481.81;;;10.27;100.00
70254;BME280;57649;42.968;1.608;2024-01-15T11:26:38;96482.00;;;10.40;100.00
70254;BME280;57649;42.968;1.608;2024-01-15T11:32:06;96474.53;;;10.36;100.00
70254;BME280;57649;42.968;1.608;2024-01-15T11:37:17;96467.72;;;10.33;100.00
70254;BME280;57649;42.968;1.608;2024-01-15T11:39:42;96467.03;;;10.46;100.00
70254;BME280;57649;42.968;1.608;2024-01-15T11:42:10;96459.31;;;10.58;100.00
70254;BME280;57649;42.968;1.608;2024-01-15T11:44:37;96448.69;;;10.65;100.00
70254;BME280;57649;42.968;1.608;2024-01-15T11:47:04;96461.47;;;10.69;100.00
70254;BME280;57649;42.968;1.608;2024-01-15T11:50:01;96449.22;;;10.82;100.00
70254;BME280;57649;42.968;1.608;2024-01-15T11:52:32;96438.59;;;10.67;100.00
70254;BME280;57649;42.968;1.608;2024-01-15T12:00:05;96431.94;;;10.84;100.00
70254;BME280;57649;42.968;1.608;2024-01-15T12:02:32;96434.41;;;10.79;100.00
70254;BME280;57649;42.968;1.608;2024-01-15T12:04:57;96438.19;;;10.91;100.00
70254;BME280;57649;42.968;1.608;2024-01-15T12:07:23;96426.41;;;10.86;100.00
70254;BME280;57649;42.968;1.608;2024-01-15T12:09:48;96433.34;;;10.80;100.00
70254;BME280;57649;42.968;1.608;2024-01-15T12:12:24;96436.97;;;10.94;100.00
70254;BME280;57649;42.968;1.608;2024-01-15T12:14:51;96422.41;;;10.75;100.00
70254;BME280;57649;42.968;1.608;2024-01-15T12:17:16;96420.22;;;10.85;100.00
70254;BME280;57649;42.968;1.608;2024-01-15T12:19:43;96420.66;;;10.89;100.00
70254;BME280;57649;42.968;1.608;2024-01-15T12:22:08;96419.25;;;10.93;100.00
70254;BME280;57649;42.968;1.608;2024-01-15T12:24:34;96417.25;;;11.02;100.00
70254;BME280;57649;42.968;1.608;2024-01-15T12:27:00;96408.06;;;10.83;100.00
70254;BME280;57649;42.968;1.608;2024-01-15T12:29:26;96405.56;;;10.81;100.00
70254;BME280;57649;42.968;1.608;2024-01-15T12:31:53;96401.41;;;10.78;100.00
70254;BME280;57649;42.968;1.608;2024-01-15T12:34:18;96407.03;;;10.84;100.00
70254;BME280;57649;42.968;1.608;2024-01-15T12:36:46;96399.31;;;10.95;100.00
70254;BME280;57649;42.968;1.608;2024-01-15T12:39:12;96394.13;;;10.94;100.00
70254;BME280;57649;42.968;1.608;2024-01-15T12:41:38;96394.56;;;10.97;100.00
70254;BME280;57649;42.968;1.608;2024-01-15T12:44:04;96385.84;;;10.89;100.00
70254;BME280;57649;42.968;1.608;2024-01-15T12:46:30;96382.56;;;10.93;100.00
70254;BME280;57649;42.968;1.608;2024-01-15T12:48:56;96365.16;;;11.04;100.00
70254;BME280;57649;42.968;1.608;2024-01-15T12:51:25;96375.47;;;11.07;100.00
70254;BME280;57649;42.968;1.608;2024-01-15T12:53:51;96365.56;;;11.08;100.00
70254;BME280;57649;42.968;1.608;2024-01-15T12:56:19;96365.16;;;11.04;100.00
70254;BME280;57649;42.968;1.608;2024-01-15T12:58:44;96371.09;;;11.00;100.00
70254;BME280;57649;42.968;1.608;2024-01-15T13:01:10;96363.84;;;10.93;100.00
70254;BME280;57649;42.968;1.608;2024-01-15T13:03:35;96374.47;;;11.15;100.00
70254;BME280;57649;42.968;1.608;2024-01-15T13:06:01;96370.75;;;11.09;100.00
70254;BME280;57649;42.968;1.608;2024-01-15T13:08:26;96371.63;;;11.16;100.00
70254;BME280;57649;42.968;1.608;2024-01-15T13:10:53;96369.19;;;11.22;100.00
70254;BME280;57649;42.968;1.608;2024-01-15T13:13:22;96373.72;;;11.21;100.00